New Munich, MN

3:32 AM CST on February 07, 2016 (GMT -0600)
Long Prairie | | Change Station
CLOSE
Current Station
Airport
Location: Long Prairie,
Elevation: 1332 ft
Nearby Weather Stations
Active Advisory: Winter Weather Advisory

Elev 1332 ft 45.90 °N, 94.87 °W | Updated 8 minutes ago

Partly Cloudy
Partly Cloudy
34 °F
Feels Like 25 °F
N
12
Wind Variable Wind from WSW
Gusts 21 mph

Today
High -- | Low -- °F
--% Chance of Precip.
Yesterday
High -- | Low -- °F
Precip. -- in
Pressure 29.57 in
Visibility 10.0 miles
Clouds Mostly Cloudy 1800 ft
Overcast 2400 ft
Windchill 25 °F
Dew Point 32 °F
Humidity 93%
Rainfall 0.00 in
Snow Depth Not available.
7:33 AM 5:33 PM
Waning Crescent, 2% visible
METAR K14Y 070924Z AUTO 24010G18KT 10SM BKN018 OVC024 01/00 A2957 RMK AO2
Pressure 29.57 in
Visibility 10.0 miles
Clouds Mostly Cloudy 1800 ft
Overcast 2400 ft
Windchill 25 °F
Dew Point 32 °F
Humidity 93%
Rainfall 0.00 in
Snow Depth Not available.
7:33 AM 5:33 PM
Waning Crescent, 2% visible
METAR K14Y 070924Z AUTO 24010G18KT 10SM BKN018 OVC024 01/00 A2957 RMK AO2

10-Day Weather Forecast

Almanac

Astronomy

Feb. 07, 2016 Rise Set
Actual Time
Civil Twilight
Nautical Twilight
Astronomical Twilight
Moon
Length of Visible Light
Length of Day
Tomorrow will be .
, % of the Moon is Illuminated

Today's Extremes

State Highs State Lows

Community

WunderPhotos

Upload Photos

1,891,171 photos uploaded!

WunderBlog® & News

Nearby

Air Quality

  Air Quality AQ Index Pollutant
Not available.

Snow Depth

Station Depth Elevation

Earthquake Activity

City Distance Mag. Time & Date
Minimum magnitude displayed is 2.5.

Coastal Water Temperatures

Place Temperature

Stations

Nearby Weather Stations

Station Location Temp. Windchill Dew Point Humidity Wind Precip. Elev Updated Type
                   

Watches & Warnings

Winter Weather Advisory
Issued: 2:54 AM CST Feb. 7, 2016 – National Weather Service

... Winter Weather Advisory now in effect from 4 PM this afternoon
to noon CST Monday...

* expect snow to develop around 4 PM this afternoon and then
diminish around noon Monday.

* The heaviest snowfall rates will occur between noon and 6 PM
Sunday.

* Snow accumulations of 1 to 2 inches are expected.

* Winds gusting as high as 45 mph will cause areas of blowing and
drifting snow.

* Plan on slippery Road conditions.

Precautionary/preparedness actions...

A Winter Weather Advisory for snow means periods of snow and
blowing snow will cause travel difficulties. Be prepared for snow
covered roads and limited visibilities... and use caution while
driving. The latest Road conditions for the state you are calling
from can be obtained by calling 5 1 1.